sensor_id;sensor_type;location;lat;lon;timestamp;P1;durP1;ratioP1;P2;durP2;ratioP2
69789;SDS011;57064;52.046;4.800;2023-05-17T00:00:58;21.42;;;5.22;;
69789;SDS011;57064;52.046;4.800;2023-05-17T00:03:24;14.70;;;5.20;;
69789;SDS011;57064;52.046;4.800;2023-05-17T00:05:50;15.20;;;5.60;;
69789;SDS011;57064;52.046;4.800;2023-05-17T00:08:17;19.02;;;5.65;;
69789;SDS011;57064;52.046;4.800;2023-05-17T00:10:43;17.58;;;5.90;;
69789;SDS011;57064;52.046;4.800;2023-05-17T00:13:09;18.88;;;6.38;;
69789;SDS011;57064;52.046;4.800;2023-05-17T00:15:36;30.60;;;6.93;;
69789;SDS011;57064;52.046;4.800;2023-05-17T00:18:03;16.20;;;6.32;;
69789;SDS011;57064;52.046;4.800;2023-05-17T00:20:29;19.88;;;6.18;;
69789;SDS011;57064;52.046;4.800;2023-05-17T00:22:55;16.35;;;6.55;;
69789;SDS011;57064;52.046;4.800;2023-05-17T00:25:21;17.98;;;6.88;;
69789;SDS011;57064;52.046;4.800;2023-05-17T00:27:49;21.45;;;6.70;;
69789;SDS011;57064;52.046;4.800;2023-05-17T00:30:15;19.95;;;6.00;;
69789;SDS011;57064;52.046;4.800;2023-05-17T00:32:41;21.67;;;6.68;;
69789;SDS011;57064;52.046;4.800;2023-05-17T00:35:10;15.13;;;5.65;;
69789;SDS011;57064;52.046;4.800;2023-05-17T00:37:36;16.92;;;5.60;;
69789;SDS011;57064;52.046;4.800;2023-05-17T00:40:03;18.55;;;5.72;;
69789;SDS011;57064;52.046;4.800;2023-05-17T00:42:31;17.52;;;6.00;;
69789;SDS011;57064;52.046;4.800;2023-05-17T00:44:58;20.95;;;6.45;;
69789;SDS011;57064;52.046;4.800;2023-05-17T00:47:24;20.23;;;6.88;;
69789;SDS011;57064;52.046;4.800;2023-05-17T00:49:50;18.70;;;6.00;;
69789;SDS011;57064;52.046;4.800;2023-05-17T00:52:16;19.05;;;6.15;;
69789;SDS011;57064;52.046;4.800;2023-05-17T00:54:42;21.08;;;5.50;;
69789;SDS011;57064;52.046;4.800;2023-05-17T00:57:09;20.55;;;5.97;;
69789;SDS011;57064;52.046;4.800;2023-05-17T00:59:35;21.25;;;6.38;;
69789;SDS011;57064;52.046;4.800;2023-05-17T01:02:03;23.42;;;6.95;;
69789;SDS011;57064;52.046;4.800;2023-05-17T01:04:30;22.50;;;7.03;;
69789;SDS011;57064;52.046;4.800;2023-05-17T01:06:56;18.80;;;6.82;;
69789;SDS011;57064;52.046;4.800;2023-05-17T01:09:23;18.58;;;5.45;;
69789;SDS011;57064;52.046;4.800;2023-05-17T01:11:58;22.05;;;6.60;;
69789;SDS011;57064;52.046;4.800;2023-05-17T01:20:11;19.88;;;5.78;;
69789;SDS011;57064;52.046;4.800;2023-05-17T01:28:11;21.75;;;5.75;;
69789;SDS011;57064;52.046;4.800;2023-05-17T01:30:38;14.70;;;7.32;;
69789;SDS011;57064;52.046;4.800;2023-05-17T01:33:06;18.25;;;6.13;;
69789;SDS011;57064;52.046;4.800;2023-05-17T01:35:32;18.63;;;6.30;;
69789;SDS011;57064;52.046;4.800;2023-05-17T01:37:58;23.52;;;6.15;;
69789;SDS011;57064;52.046;4.800;2023-05-17T01:40:24;22.98;;;5.60;;
69789;SDS011;57064;52.046;4.800;2023-05-17T01:42:55;25.00;;;6.25;;
69789;SDS011;57064;52.046;4.800;2023-05-17T01:45:37;14.68;;;5.50;;
69789;SDS011;57064;52.046;4.800;2023-05-17T01:48:19;15.48;;;6.60;;
69789;SDS011;57064;52.046;4.800;2023-05-17T01:50:47;17.85;;;5.30;;
69789;SDS011;57064;52.046;4.800;2023-05-17T01:53:20;18.98;;;5.05;;
69789;SDS011;57064;52.046;4.800;2023-05-17T01:58:57;20.75;;;5.57;;
69789;SDS011;57064;52.046;4.800;2023-05-17T02:01:26;23.98;;;5.15;;
69789;SDS011;57064;52.046;4.800;2023-05-17T02:03:54;17.27;;;5.20;;
69789;SDS011;57064;52.046;4.800;2023-05-17T02:06:20;18.35;;;4.80;;
69789;SDS011;57064;52.046;4.800;2023-05-17T02:08:46;20.65;;;5.65;;
69789;SDS011;57064;52.046;4.800;2023-05-17T02:11:12;15.90;;;6.38;;
69789;SDS011;57064;52.046;4.800;2023-05-17T02:13:38;18.10;;;6.80;;
69789;SDS011;57064;52.046;4.800;2023-05-17T02:16:06;21.15;;;5.55;;
69789;SDS011;57064;52.046;4.800;2023-05-17T02:18:32;21.02;;;6.22;;
69789;SDS011;57064;52.046;4.800;2023-05-17T02:20:59;17.63;;;4.70;;
69789;SDS011;57064;52.046;4.800;2023-05-17T02:23:25;15.45;;;4.97;;
69789;SDS011;57064;52.046;4.800;2023-05-17T02:25:51;19.95;;;5.53;;
69789;SDS011;57064;52.046;4.800;2023-05-17T02:28:17;20.65;;;5.72;;
69789;SDS011;57064;52.046;4.800;2023-05-17T02:30:44;22.35;;;5.80;;
69789;SDS011;57064;52.046;4.800;2023-05-17T02:33:10;17.63;;;5.57;;
69789;SDS011;57064;52.046;4.800;2023-05-17T02:35:36;28.17;;;6.05;;
69789;SDS011;57064;52.046;4.800;2023-05-17T02:38:02;17.45;;;5.78;;
69789;SDS011;57064;52.046;4.800;2023-05-17T02:40:28;21.45;;;5.18;;
69789;SDS011;57064;52.046;4.800;2023-05-17T02:42:54;19.88;;;5.40;;
69789;SDS011;57064;52.046;4.800;2023-05-17T02:45:20;16.92;;;5.43;;
69789;SDS011;57064;52.046;4.800;2023-05-17T02:47:46;13.07;;;5.22;;
69789;SDS011;57064;52.046;4.800;2023-05-17T02:50:12;15.60;;;5.32;;
69789;SDS011;57064;52.046;4.800;2023-05-17T02:52:40;10.88;;;4.40;;
69789;SDS011;57064;52.046;4.800;2023-05-17T02:55:07;19.25;;;5.50;;
69789;SDS011;57064;52.046;4.800;2023-05-17T02:57:33;21.35;;;6.70;;
69789;SDS011;57064;52.046;4.800;2023-05-17T02:59:59;21.92;;;5.47;;
69789;SDS011;57064;52.046;4.800;2023-05-17T03:02:25;17.92;;;5.07;;
69789;SDS011;57064;52.046;4.800;2023-05-17T03:04:51;22.58;;;5.88;;
69789;SDS011;57064;52.046;4.800;2023-05-17T03:07:17;24.50;;;5.22;;
69789;SDS011;57064;52.046;4.800;2023-05-17T03:09:43;14.80;;;5.43;;
69789;SDS011;57064;52.046;4.800;2023-05-17T03:12:10;24.48;;;5.50;;
69789;SDS011;57064;52.046;4.800;2023-05-17T03:14:36;19.00;;;5.05;;
69789;SDS011;57064;52.046;4.800;2023-05-17T03:17:02;25.85;;;6.10;;
69789;SDS011;57064;52.046;4.800;2023-05-17T03:19:29;14.10;;;4.93;;
69789;SDS011;57064;52.046;4.800;2023-05-17T03:21:55;17.17;;;5.53;;
69789;SDS011;57064;52.046;4.800;2023-05-17T03:24:21;14.63;;;5.78;;
69789;SDS011;57064;52.046;4.800;2023-05-17T03:26:47;20.10;;;6.88;;
69789;SDS011;57064;52.046;4.800;2023-05-17T03:29:13;15.65;;;5.38;;
69789;SDS011;57064;52.046;4.800;2023-05-17T03:31:39;18.70;;;5.35;;
69789;SDS011;57064;52.046;4.800;2023-05-17T03:34:06;18.25;;;5.22;;
69789;SDS011;57064;52.046;4.800;2023-05-17T03:36:32;15.73;;;4.72;;
69789;SDS011;57064;52.046;4.800;2023-05-17T03:38:59;19.20;;;4.78;;
69789;SDS011;57064;52.046;4.800;2023-05-17T03:41:25;18.58;;;6.10;;
69789;SDS011;57064;52.046;4.800;2023-05-17T03:43:51;24.00;;;5.57;;
69789;SDS011;57064;52.046;4.800;2023-05-17T03:46:17;21.27;;;6.00;;
69789;SDS011;57064;52.046;4.800;2023-05-17T03:48:43;21.25;;;5.07;;
69789;SDS011;57064;52.046;4.800;2023-05-17T03:51:09;10.25;;;3.72;;
69789;SDS011;57064;52.046;4.800;2023-05-17T03:53:35;12.52;;;3.92;;
69789;SDS011;57064;52.046;4.800;2023-05-17T03:56:05;12.23;;;4.22;;
69789;SDS011;57064;52.046;4.800;2023-05-17T03:58:31;13.95;;;3.45;;
69789;SDS011;57064;52.046;4.800;2023-05-17T04:00:57;10.45;;;3.25;;
69789;SDS011;57064;52.046;4.800;2023-05-17T04:03:23;15.23;;;3.53;;
69789;SDS011;57064;52.046;4.800;2023-05-17T04:05:49;12.90;;;2.97;;
69789;SDS011;57064;52.046;4.800;2023-05-17T04:08:15;12.38;;;2.75;;
69789;SDS011;57064;52.046;4.800;2023-05-17T04:10:41;13.82;;;4.00;;
69789;SDS011;57064;52.046;4.800;2023-05-17T04:13:08;7.60;;;2.45;;
69789;SDS011;57064;52.046;4.800;2023-05-17T04:15:34;9.07;;;2.75;;
69789;SDS011;57064;52.046;4.800;2023-05-17T04:18:00;15.15;;;2.55;;
69789;SDS011;57064;52.046;4.800;2023-05-17T04:20:26;9.88;;;2.95;;
69789;SDS011;57064;52.046;4.800;2023-05-17T04:22:52;11.15;;;2.88;;
69789;SDS011;57064;52.046;4.800;2023-05-17T04:25:19;15.65;;;2.95;;
69789;SDS011;57064;52.046;4.800;2023-05-17T04:27:45;13.43;;;2.75;;
69789;SDS011;57064;52.046;4.800;2023-05-17T04:30:11;13.25;;;2.38;;
69789;SDS011;57064;52.046;4.800;2023-05-17T04:32:37;18.40;;;3.95;;
69789;SDS011;57064;52.046;4.800;2023-05-17T04:35:03;12.05;;;3.05;;
69789;SDS011;57064;52.046;4.800;2023-05-17T04:37:30;19.55;;;3.35;;
69789;SDS011;57064;52.046;4.800;2023-05-17T04:39:56;11.15;;;2.67;;
69789;SDS011;57064;52.046;4.800;2023-05-17T04:42:23;12.13;;;2.88;;
69789;SDS011;57064;52.046;4.800;2023-05-17T04:44:49;17.38;;;3.30;;
69789;SDS011;57064;52.046;4.800;2023-05-17T04:47:15;12.80;;;3.17;;
69789;SDS011;57064;52.046;4.800;2023-05-17T04:49:42;12.20;;;3.15;;
69789;SDS011;57064;52.046;4.800;2023-05-17T04:52:08;14.32;;;3.35;;
69789;SDS011;57064;52.046;4.800;2023-05-17T04:54:34;13.30;;;3.03;;
69789;SDS011;57064;52.046;4.800;2023-05-17T04:57:00;13.18;;;1.98;;
69789;SDS011;57064;52.046;4.800;2023-05-17T04:59:27;10.68;;;2.55;;
69789;SDS011;57064;52.046;4.800;2023-05-17T05:01:53;11.75;;;2.17;;
69789;SDS011;57064;52.046;4.800;2023-05-17T05:04:20;12.32;;;2.40;;
69789;SDS011;57064;52.046;4.800;2023-05-17T05:06:47;10.23;;;1.73;;
69789;SDS011;57064;52.046;4.800;2023-05-17T05:09:13;14.15;;;2.38;;
69789;SDS011;57064;52.046;4.800;2023-05-17T05:11:39;14.27;;;2.95;;
69789;SDS011;57064;52.046;4.800;2023-05-17T05:14:05;9.20;;;2.38;;
69789;SDS011;57064;52.046;4.800;2023-05-17T05:16:31;11.23;;;2.50;;
69789;SDS011;57064;52.046;4.800;2023-05-17T05:19:00;12.02;;;2.78;;
69789;SDS011;57064;52.046;4.800;2023-05-17T05:21:26;9.35;;;1.90;;
69789;SDS011;57064;52.046;4.800;2023-05-17T05:23:52;15.35;;;2.08;;
69789;SDS011;57064;52.046;4.800;2023-05-17T05:26:19;14.98;;;2.20;;
69789;SDS011;57064;52.046;4.800;2023-05-17T05:28:45;11.00;;;1.73;;
69789;SDS011;57064;52.046;4.800;2023-05-17T05:31:11;12.93;;;2.33;;
69789;SDS011;57064;52.046;4.800;2023-05-17T05:33:38;10.85;;;2.20;;
69789;SDS011;57064;52.046;4.800;2023-05-17T05:36:05;8.52;;;1.92;;
69789;SDS011;57064;52.046;4.800;2023-05-17T05:38:31;13.88;;;2.70;;
69789;SDS011;57064;52.046;4.800;2023-05-17T05:40:58;11.43;;;2.08;;
69789;SDS011;57064;52.046;4.800;2023-05-17T05:43:24;10.10;;;2.15;;
69789;SDS011;57064;52.046;4.800;2023-05-17T05:45:50;12.75;;;2.38;;
69789;SDS011;57064;52.046;4.800;2023-05-17T05:48:16;11.10;;;2.00;;
69789;SDS011;57064;52.046;4.800;2023-05-17T05:50:42;13.93;;;2.40;;
69789;SDS011;57064;52.046;4.800;2023-05-17T05:53:09;8.23;;;2.13;;
69789;SDS011;57064;52.046;4.800;2023-05-17T05:55:39;11.20;;;2.30;;
69789;SDS011;57064;52.046;4.800;2023-05-17T05:58:06;13.57;;;2.78;;
69789;SDS011;57064;52.046;4.800;2023-05-17T06:00:32;12.00;;;2.38;;
69789;SDS011;57064;52.046;4.800;2023-05-17T06:02:58;13.77;;;1.98;;
69789;SDS011;57064;52.046;4.800;2023-05-17T06:05:24;9.75;;;2.20;;
69789;SDS011;57064;52.046;4.800;2023-05-17T06:07:51;19.90;;;2.38;;
69789;SDS011;57064;52.046;4.800;2023-05-17T06:10:17;10.60;;;1.90;;
69789;SDS011;57064;52.046;4.800;2023-05-17T06:12:43;13.40;;;2.38;;
69789;SDS011;57064;52.046;4.800;2023-05-17T06:15:09;9.93;;;1.90;;
69789;SDS011;57064;52.046;4.800;2023-05-17T06:17:35;13.40;;;2.13;;
69789;SDS011;57064;52.046;4.800;2023-05-17T06:20:02;12.35;;;2.63;;
69789;SDS011;57064;52.046;4.800;2023-05-17T06:22:29;13.50;;;3.17;;
69789;SDS011;57064;52.046;4.800;2023-05-17T06:24:55;14.63;;;2.33;;
69789;SDS011;57064;52.046;4.800;2023-05-17T06:27:21;12.38;;;2.00;;
69789;SDS011;57064;52.046;4.800;2023-05-17T06:29:47;17.40;;;2.55;;
69789;SDS011;57064;52.046;4.800;2023-05-17T06:32:13;11.25;;;3.28;;
69789;SDS011;57064;52.046;4.800;2023-05-17T06:34:39;8.90;;;1.65;;
69789;SDS011;57064;52.046;4.800;2023-05-17T06:37:05;12.13;;;2.13;;
69789;SDS011;57064;52.046;4.800;2023-05-17T06:39:31;13.68;;;3.53;;
69789;SDS011;57064;52.046;4.800;2023-05-17T06:41:57;11.98;;;2.08;;
69789;SDS011;57064;52.046;4.800;2023-05-17T06:44:23;10.88;;;1.70;;
69789;SDS011;57064;52.046;4.800;2023-05-17T06:46:49;10.13;;;2.00;;
69789;SDS011;57064;52.046;4.800;2023-05-17T06:49:15;11.68;;;1.73;;
69789;SDS011;57064;52.046;4.800;2023-05-17T06:51:41;13.05;;;2.53;;
69789;SDS011;57064;52.046;4.800;2023-05-17T06:54:07;11.15;;;2.58;;
69789;SDS011;57064;52.046;4.800;2023-05-17T06:56:33;14.82;;;2.40;;
69789;SDS011;57064;52.046;4.800;2023-05-17T06:58:59;10.77;;;1.95;;
69789;SDS011;57064;52.046;4.800;2023-05-17T07:01:26;12.30;;;2.25;;
69789;SDS011;57064;52.046;4.800;2023-05-17T07:03:52;10.38;;;1.92;;
69789;SDS011;57064;52.046;4.800;2023-05-17T07:06:18;14.65;;;2.90;;
69789;SDS011;57064;52.046;4.800;2023-05-17T07:08:45;14.93;;;1.95;;
69789;SDS011;57064;52.046;4.800;2023-05-17T07:11:11;7.28;;;1.98;;
69789;SDS011;57064;52.046;4.800;2023-05-17T07:13:37;8.05;;;1.35;;
69789;SDS011;57064;52.046;4.800;2023-05-17T07:16:04;4.40;;;1.08;;
69789;SDS011;57064;52.046;4.800;2023-05-17T07:18:32;6.38;;;1.63;;
69789;SDS011;57064;52.046;4.800;2023-05-17T07:20:58;8.27;;;1.73;;
69789;SDS011;57064;52.046;4.800;2023-05-17T07:23:24;10.57;;;2.08;;
69789;SDS011;57064;52.046;4.800;2023-05-17T07:25:51;11.60;;;1.98;;
69789;SDS011;57064;52.046;4.800;2023-05-17T07:28:17;12.23;;;2.17;;
69789;SDS011;57064;52.046;4.800;2023-05-17T07:30:43;8.80;;;1.73;;
69789;SDS011;57064;52.046;4.800;2023-05-17T07:33:09;8.70;;;1.88;;
69789;SDS011;57064;52.046;4.800;2023-05-17T07:35:35;6.63;;;1.65;;
69789;SDS011;57064;52.046;4.800;2023-05-17T07:38:01;4.80;;;1.10;;
69789;SDS011;57064;52.046;4.800;2023-05-17T07:40:27;6.88;;;1.27;;
69789;SDS011;57064;52.046;4.800;2023-05-17T07:42:53;5.13;;;1.60;;
69789;SDS011;57064;52.046;4.800;2023-05-17T07:45:19;12.77;;;2.20;;
69789;SDS011;57064;52.046;4.800;2023-05-17T07:47:46;5.43;;;1.55;;
69789;SDS011;57064;52.046;4.800;2023-05-17T07:50:12;8.27;;;1.25;;
69789;SDS011;57064;52.046;4.800;2023-05-17T07:52:38;6.35;;;1.08;;
69789;SDS011;57064;52.046;4.800;2023-05-17T07:55:04;10.25;;;1.35;;
69789;SDS011;57064;52.046;4.800;2023-05-17T07:57:31;13.35;;;1.65;;
69789;SDS011;57064;52.046;4.800;2023-05-17T07:59:57;7.63;;;1.33;;
69789;SDS011;57064;52.046;4.800;2023-05-17T08:02:23;8.35;;;1.63;;
69789;SDS011;57064;52.046;4.800;2023-05-17T08:04:49;5.63;;;1.35;;
69789;SDS011;57064;52.046;4.800;2023-05-17T08:07:15;10.02;;;1.25;;
69789;SDS011;57064;52.046;4.800;2023-05-17T08:09:41;8.65;;;2.05;;
69789;SDS011;57064;52.046;4.800;2023-05-17T08:12:09;10.27;;;1.42;;
69789;SDS011;57064;52.046;4.800;2023-05-17T08:14:35;5.32;;;1.27;;
69789;SDS011;57064;52.046;4.800;2023-05-17T08:17:04;8.30;;;1.75;;
69789;SDS011;57064;52.046;4.800;2023-05-17T08:19:30;5.78;;;1.10;;
69789;SDS011;57064;52.046;4.800;2023-05-17T08:21:56;8.32;;;1.40;;
69789;SDS011;57064;52.046;4.800;2023-05-17T08:24:22;4.55;;;1.05;;
69789;SDS011;57064;52.046;4.800;2023-05-17T08:26:48;7.28;;;1.25;;
69789;SDS011;57064;52.046;4.800;2023-05-17T08:29:14;16.23;;;1.80;;
69789;SDS011;57064;52.046;4.800;2023-05-17T08:31:41;7.43;;;1.17;;
69789;SDS011;57064;52.046;4.800;2023-05-17T08:34:07;6.43;;;1.30;;
69789;SDS011;57064;52.046;4.800;2023-05-17T08:36:33;5.15;;;1.33;;
69789;SDS011;57064;52.046;4.800;2023-05-17T08:38:59;8.10;;;2.10;;
69789;SDS011;57064;52.046;4.800;2023-05-17T08:41:25;5.70;;;1.25;;
69789;SDS011;57064;52.046;4.800;2023-05-17T08:43:52;8.43;;;1.55;;
69789;SDS011;57064;52.046;4.800;2023-05-17T08:46:20;4.03;;;1.25;;
69789;SDS011;57064;52.046;4.800;2023-05-17T08:48:51;5.38;;;1.60;;
69789;SDS011;57064;52.046;4.800;2023-05-17T08:51:19;12.40;;;2.35;;
69789;SDS011;57064;52.046;4.800;2023-05-17T08:53:47;6.00;;;1.20;;
69789;SDS011;57064;52.046;4.800;2023-05-17T08:56:14;9.98;;;1.45;;
69789;SDS011;57064;52.046;4.800;2023-05-17T08:58:43;7.20;;;1.48;;
69789;SDS011;57064;52.046;4.800;2023-05-17T09:01:12;8.38;;;2.33;;
69789;SDS011;57064;52.046;4.800;2023-05-17T09:03:40;12.25;;;1.48;;
69789;SDS011;57064;52.046;4.800;2023-05-17T09:06:09;6.82;;;1.30;;
69789;SDS011;57064;52.046;4.800;2023-05-17T09:08:36;4.60;;;1.13;;
69789;SDS011;57064;52.046;4.800;2023-05-17T09:11:02;7.93;;;1.65;;
69789;SDS011;57064;52.046;4.800;2023-05-17T09:13:28;5.40;;;1.38;;
69789;SDS011;57064;52.046;4.800;2023-05-17T09:15:55;8.80;;;1.58;;
69789;SDS011;57064;52.046;4.800;2023-05-17T09:18:28;13.35;;;1.98;;
69789;SDS011;57064;52.046;4.800;2023-05-17T09:21:01;6.00;;;1.27;;
69789;SDS011;57064;52.046;4.800;2023-05-17T09:23:29;6.95;;;1.50;;
69789;SDS011;57064;52.046;4.800;2023-05-17T09:28:40;5.60;;;1.10;;
69789;SDS011;57064;52.046;4.800;2023-05-17T09:31:07;5.40;;;1.17;;
69789;SDS011;57064;52.046;4.800;2023-05-17T09:33:44;8.35;;;1.65;;
69789;SDS011;57064;52.046;4.800;2023-05-17T09:36:18;6.57;;;1.48;;
69789;SDS011;57064;52.046;4.800;2023-05-17T09:38:55;8.13;;;1.60;;
69789;SDS011;57064;52.046;4.800;2023-05-17T09:41:38;5.40;;;0.90;;
69789;SDS011;57064;52.046;4.800;2023-05-17T09:44:07;5.32;;;1.10;;
69789;SDS011;57064;52.046;4.800;2023-05-17T09:46:34;7.63;;;1.05;;
69789;SDS011;57064;52.046;4.800;2023-05-17T09:49:03;8.93;;;2.10;;
69789;SDS011;57064;52.046;4.800;2023-05-17T09:53:58;10.13;;;1.58;;
69789;SDS011;57064;52.046;4.800;2023-05-17T09:56:28;8.95;;;1.45;;
69789;SDS011;57064;52.046;4.800;2023-05-17T09:58:55;5.20;;;0.90;;
69789;SDS011;57064;52.046;4.800;2023-05-17T10:01:24;9.13;;;2.17;;
69789;SDS011;57064;52.046;4.800;2023-05-17T10:03:52;7.32;;;1.23;;
69789;SDS011;57064;52.046;4.800;2023-05-17T10:06:20;4.35;;;1.05;;
69789;SDS011;57064;52.046;4.800;2023-05-17T10:08:50;4.32;;;1.30;;
69789;SDS011;57064;52.046;4.800;2023-05-17T10:11:20;6.88;;;1.20;;
69789;SDS011;57064;52.046;4.800;2023-05-17T10:16:36;8.23;;;2.67;;
69789;SDS011;57064;52.046;4.800;2023-05-17T10:19:02;5.55;;;1.30;;
69789;SDS011;57064;52.046;4.800;2023-05-17T10:21:31;9.70;;;1.85;;
69789;SDS011;57064;52.046;4.800;2023-05-17T10:24:02;7.40;;;1.63;;
69789;SDS011;57064;52.046;4.800;2023-05-17T10:26:30;10.88;;;1.38;;
69789;SDS011;57064;52.046;4.800;2023-05-17T10:28:58;4.13;;;1.25;;
69789;SDS011;57064;52.046;4.800;2023-05-17T10:31:26;4.35;;;1.63;;
69789;SDS011;57064;52.046;4.800;2023-05-17T10:33:55;6.07;;;1.70;;
69789;SDS011;57064;52.046;4.800;2023-05-17T10:36:22;7.43;;;1.63;;
69789;SDS011;57064;52.046;4.800;2023-05-17T10:38:50;7.93;;;1.45;;
69789;SDS011;57064;52.046;4.800;2023-05-17T10:41:17;8.68;;;1.60;;
69789;SDS011;57064;52.046;4.800;2023-05-17T10:43:47;7.90;;;1.65;;
69789;SDS011;57064;52.046;4.800;2023-05-17T10:46:17;5.63;;;1.75;;
69789;SDS011;57064;52.046;4.800;2023-05-17T10:48:49;6.85;;;1.65;;
69789;SDS011;57064;52.046;4.800;2023-05-17T10:51:35;5.63;;;1.17;;
69789;SDS011;57064;52.046;4.800;2023-05-17T10:56:40;8.32;;;1.60;;
69789;SDS011;57064;52.046;4.800;2023-05-17T10:59:19;4.07;;;1.13;;
69789;SDS011;57064;52.046;4.800;2023-05-17T11:09:54;6.45;;;0.90;;
69789;SDS011;57064;52.046;4.800;2023-05-17T11:15:10;7.25;;;1.60;;
69789;SDS011;57064;52.046;4.800;2023-05-17T11:23:07;6.20;;;1.38;;
69789;SDS011;57064;52.046;4.800;2023-05-17T11:25:41;7.50;;;1.48;;
69789;SDS011;57064;52.046;4.800;2023-05-17T11:28:08;5.03;;;1.42;;
69789;SDS011;57064;52.046;4.800;2023-05-17T11:30:47;7.63;;;1.55;;
69789;SDS011;57064;52.046;4.800;2023-05-17T11:33:17;7.78;;;1.92;;
69789;SDS011;57064;52.046;4.800;2023-05-17T11:35:45;4.63;;;1.20;;
69789;SDS011;57064;52.046;4.800;2023-05-17T11:38:18;5.80;;;1.92;;
69789;SDS011;57064;52.046;4.800;2023-05-17T11:40:48;7.40;;;1.83;;
69789;SDS011;57064;52.046;4.800;2023-05-17T11:43:19;5.47;;;1.70;;
69789;SDS011;57064;52.046;4.800;2023-05-17T11:48:18;6.13;;;1.85;;
69789;SDS011;57064;52.046;4.800;2023-05-17T11:50:47;9.82;;;1.63;;
69789;SDS011;57064;52.046;4.800;2023-05-17T11:53:15;6.05;;;1.38;;
69789;SDS011;57064;52.046;4.800;2023-05-17T11:55:42;2.55;;;1.30;;
69789;SDS011;57064;52.046;4.800;2023-05-17T11:58:14;6.57;;;1.90;;
69789;SDS011;57064;52.046;4.800;2023-05-17T12:00:42;7.38;;;1.90;;
69789;SDS011;57064;52.046;4.800;2023-05-17T12:03:19;5.75;;;1.70;;
69789;SDS011;57064;52.046;4.800;2023-05-17T12:05:47;7.20;;;1.80;;
69789;SDS011;57064;52.046;4.800;2023-05-17T12:08:18;6.47;;;1.90;;
69789;SDS011;57064;52.046;4.800;2023-05-17T12:10:49;3.85;;;1.50;;
69789;SDS011;57064;52.046;4.800;2023-05-17T12:13:16;9.90;;;1.85;;
69789;SDS011;57064;52.046;4.800;2023-05-17T12:15:46;10.98;;;2.25;;
69789;SDS011;57064;52.046;4.800;2023-05-17T12:18:18;5.50;;;1.75;;
69789;SDS011;57064;52.046;4.800;2023-05-17T12:20:54;8.82;;;1.85;;
69789;SDS011;57064;52.046;4.800;2023-05-17T12:23:25;6.15;;;1.80;;
69789;SDS011;57064;52.046;4.800;2023-05-17T12:28:31;6.75;;;1.80;;
69789;SDS011;57064;52.046;4.800;2023-05-17T12:30:58;9.43;;;1.80;;
69789;SDS011;57064;52.046;4.800;2023-05-17T12:33:30;4.85;;;1.75;;
69789;SDS011;57064;52.046;4.800;2023-05-17T12:36:01;9.05;;;1.70;;
69789;SDS011;57064;52.046;4.800;2023-05-17T12:38:29;7.43;;;1.95;;
69789;SDS011;57064;52.046;4.800;2023-05-17T12:40:58;8.23;;;2.13;;
69789;SDS011;57064;52.046;4.800;2023-05-17T12:43:26;5.85;;;1.45;;
69789;SDS011;57064;52.046;4.800;2023-05-17T12:45:54;11.27;;;2.42;;
69789;SDS011;57064;52.046;4.800;2023-05-17T12:48:28;8.38;;;1.52;;
69789;SDS011;57064;52.046;4.800;2023-05-17T12:50:54;12.18;;;2.22;;
69789;SDS011;57064;52.046;4.800;2023-05-17T12:53:21;11.63;;;1.88;;
69789;SDS011;57064;52.046;4.800;2023-05-17T12:55:47;7.00;;;1.73;;
69789;SDS011;57064;52.046;4.800;2023-05-17T12:58:13;8.63;;;1.77;;
69789;SDS011;57064;52.046;4.800;2023-05-17T13:00:39;7.35;;;1.65;;
69789;SDS011;57064;52.046;4.800;2023-05-17T13:03:19;7.03;;;1.80;;
69789;SDS011;57064;52.046;4.800;2023-05-17T13:05:45;14.75;;;2.33;;
69789;SDS011;57064;52.046;4.800;2023-05-17T13:08:29;8.63;;;2.33;;
69789;SDS011;57064;52.046;4.800;2023-05-17T13:11:05;7.45;;;1.90;;
69789;SDS011;57064;52.046;4.800;2023-05-17T13:13:32;9.95;;;2.25;;
69789;SDS011;57064;52.046;4.800;2023-05-17T13:15:58;9.25;;;2.00;;
69789;SDS011;57064;52.046;4.800;2023-05-17T13:18:24;10.43;;;1.70;;
69789;SDS011;57064;52.046;4.800;2023-05-17T13:20:50;4.35;;;1.42;;
69789;SDS011;57064;52.046;4.800;2023-05-17T13:23:16;11.60;;;2.15;;
69789;SDS011;57064;52.046;4.800;2023-05-17T13:25:42;9.50;;;1.80;;
69789;SDS011;57064;52.046;4.800;2023-05-17T13:28:09;16.40;;;2.28;;
69789;SDS011;57064;52.046;4.800;2023-05-17T13:30:35;8.95;;;2.05;;
69789;SDS011;57064;52.046;4.800;2023-05-17T13:33:01;7.22;;;2.00;;
69789;SDS011;57064;52.046;4.800;2023-05-17T13:35:28;14.55;;;2.15;;
69789;SDS011;57064;52.046;4.800;2023-05-17T13:37:54;9.73;;;2.03;;
69789;SDS011;57064;52.046;4.800;2023-05-17T13:40:21;6.22;;;2.30;;
69789;SDS011;57064;52.046;4.800;2023-05-17T13:42:47;6.07;;;1.77;;
69789;SDS011;57064;52.046;4.800;2023-05-17T13:45:13;7.82;;;1.60;;
69789;SDS011;57064;52.046;4.800;2023-05-17T13:47:40;5.30;;;1.98;;
69789;SDS011;57064;52.046;4.800;2023-05-17T13:50:06;7.35;;;1.85;;
69789;SDS011;57064;52.046;4.800;2023-05-17T13:52:33;10.43;;;1.90;;
69789;SDS011;57064;52.046;4.800;2023-05-17T13:54:59;7.60;;;1.67;;
69789;SDS011;57064;52.046;4.800;2023-05-17T13:57:25;9.45;;;2.30;;
69789;SDS011;57064;52.046;4.800;2023-05-17T13:59:52;8.75;;;2.47;;
69789;SDS011;57064;52.046;4.800;2023-05-17T14:02:18;5.88;;;1.58;;
69789;SDS011;57064;52.046;4.800;2023-05-17T14:04:44;8.40;;;1.75;;
69789;SDS011;57064;52.046;4.800;2023-05-17T14:07:10;8.77;;;2.08;;
69789;SDS011;57064;52.046;4.800;2023-05-17T14:09:36;10.98;;;2.25;;
69789;SDS011;57064;52.046;4.800;2023-05-17T14:12:03;5.93;;;1.88;;
69789;SDS011;57064;52.046;4.800;2023-05-17T14:14:29;6.43;;;1.65;;
69789;SDS011;57064;52.046;4.800;2023-05-17T14:16:56;12.40;;;1.80;;
69789;SDS011;57064;52.046;4.800;2023-05-17T14:19:22;8.75;;;1.55;;
69789;SDS011;57064;52.046;4.800;2023-05-17T14:21:48;8.50;;;2.08;;
69789;SDS011;57064;52.046;4.800;2023-05-17T14:24:14;6.57;;;1.60;;
69789;SDS011;57064;52.046;4.800;2023-05-17T14:26:40;11.55;;;2.30;;
69789;SDS011;57064;52.046;4.800;2023-05-17T14:29:06;8.63;;;2.03;;
69789;SDS011;57064;52.046;4.800;2023-05-17T14:31:32;6.65;;;1.85;;
69789;SDS011;57064;52.046;4.800;2023-05-17T14:33:59;4.38;;;1.88;;
69789;SDS011;57064;52.046;4.800;2023-05-17T14:36:27;9.30;;;2.15;;
69789;SDS011;57064;52.046;4.800;2023-05-17T14:38:53;7.25;;;1.95;;
69789;SDS011;57064;52.046;4.800;2023-05-17T14:41:19;14.13;;;2.05;;
69789;SDS011;57064;52.046;4.800;2023-05-17T14:43:46;12.82;;;2.00;;
69789;SDS011;57064;52.046;4.800;2023-05-17T14:46:12;7.32;;;2.17;;
69789;SDS011;57064;52.046;4.800;2023-05-17T14:48:38;12.10;;;2.20;;
69789;SDS011;57064;52.046;4.800;2023-05-17T14:51:05;9.77;;;1.60;;
69789;SDS011;57064;52.046;4.800;2023-05-17T14:53:31;6.85;;;1.80;;
69789;SDS011;57064;52.046;4.800;2023-05-17T14:55:57;10.25;;;2.00;;
69789;SDS011;57064;52.046;4.800;2023-05-17T14:58:23;7.15;;;1.50;;
69789;SDS011;57064;52.046;4.800;2023-05-17T15:00:50;8.13;;;1.65;;
69789;SDS011;57064;52.046;4.800;2023-05-17T15:05:54;9.48;;;2.40;;
69789;SDS011;57064;52.046;4.800;2023-05-17T15:08:21;9.75;;;1.90;;
69789;SDS011;57064;52.046;4.800;2023-05-17T15:10:50;8.07;;;1.73;;
69789;SDS011;57064;52.046;4.800;2023-05-17T15:13:16;5.88;;;1.80;;
69789;SDS011;57064;52.046;4.800;2023-05-17T15:15:43;8.70;;;1.50;;
69789;SDS011;57064;52.046;4.800;2023-05-17T15:18:09;11.07;;;1.85;;
69789;SDS011;57064;52.046;4.800;2023-05-17T15:20:38;13.25;;;2.00;;
69789;SDS011;57064;52.046;4.800;2023-05-17T15:23:05;9.05;;;2.40;;
69789;SDS011;57064;52.046;4.800;2023-05-17T15:25:31;7.85;;;1.67;;
69789;SDS011;57064;52.046;4.800;2023-05-17T15:27:57;6.55;;;2.40;;
69789;SDS011;57064;52.046;4.800;2023-05-17T15:30:23;7.07;;;1.95;;